createdAt,value
2016-10-26T15:15:38.938Z,21.04
2016-10-26T15:16:49.382Z,21.04
2016-10-26T16:15:48.530Z,21.04
2016-10-26T16:16:58.926Z,21.05
2016-10-26T16:18:09.319Z,21.03
2016-10-26T16:19:19.730Z,21.05
2016-10-26T16:20:30.115Z,21
2016-10-26T16:21:40.512Z,21.08
2016-10-26T16:22:50.907Z,21.01
2016-10-26T16:24:01.303Z,21.07
2016-10-26T16:25:11.706Z,21.08
2016-10-26T16:26:22.103Z,21.04
2016-10-26T16:27:32.504Z,21.1
2016-10-26T16:28:42.894Z,21.04
2016-10-26T16:29:53.306Z,21.01
2016-10-26T16:31:03.703Z,21.07
2016-10-26T16:32:14.101Z,21.03
2016-10-26T16:33:24.502Z,21.14
2016-10-26T16:34:34.901Z,21.03
2016-10-26T16:35:45.306Z,21.03
2016-10-26T16:36:55.706Z,21.01
2016-10-26T16:38:06.102Z,21.01
2016-10-26T16:39:16.505Z,21.03
2016-10-26T16:40:26.907Z,21.13
2016-10-26T16:41:37.303Z,21.13
2016-10-26T16:42:27.801Z,21.14
2016-10-26T16:43:38.197Z,20.14
2016-10-26T16:44:48.602Z,19.9
2016-10-26T16:45:58.999Z,20.24
2016-10-26T16:47:09.405Z,20.48
2016-10-26T16:48:19.804Z,20.6
2016-10-26T16:49:30.211Z,20.66
2016-10-26T16:50:40.616Z,20.67
2016-10-26T17:15:46.160Z,21.07
2016-10-26T17:16:56.507Z,21
2016-10-26T18:15:39.460Z,21.08
2016-10-26T18:16:49.800Z,21.03
2016-10-26T18:18:00.149Z,21.04
2016-10-26T18:19:10.496Z,21.03
2016-10-26T18:20:20.840Z,21.05
2016-10-26T18:21:31.194Z,21.07
2016-10-26T18:22:41.547Z,21.04
2016-10-26T18:23:51.896Z,20.98
2016-10-26T18:25:02.243Z,21.05
2016-10-26T18:26:12.594Z,21.08
2016-10-26T18:27:22.949Z,21.01
2016-10-26T18:28:33.301Z,21.05
2016-10-26T18:29:43.652Z,21.03
2016-10-26T18:30:54.005Z,20.98
2016-10-26T18:32:04.356Z,21.05
2016-10-26T18:33:14.707Z,21.03
2016-10-26T18:34:25.067Z,21.01
2016-10-26T18:35:35.420Z,20.96
2016-10-26T18:36:45.775Z,21.03
2016-10-26T18:37:56.138Z,21.03
2016-10-26T18:39:06.500Z,20.98
2016-10-26T18:40:16.857Z,21
2016-10-26T18:41:27.214Z,21
2016-10-26T18:42:37.617Z,21.03
2016-10-26T18:43:48.022Z,21
2016-10-26T18:44:58.419Z,20.96
2016-10-26T18:46:08.848Z,21.01
2016-10-26T18:47:19.247Z,21.01
2016-10-26T18:48:29.650Z,20.98
2016-10-26T18:49:40.049Z,20.98
2016-10-26T18:50:50.452Z,21
2016-10-26T19:15:48.774Z,21.04
2016-10-26T19:16:59.126Z,21
2016-10-26T19:18:09.475Z,21.03
2016-10-26T19:19:19.825Z,21.04
2016-10-26T19:20:30.179Z,20.98
2016-10-26T19:21:40.526Z,21.01
2016-10-26T19:22:50.876Z,21.01
2016-10-26T19:24:01.225Z,21.04
2016-10-26T19:25:11.573Z,21.03
2016-10-26T19:26:21.925Z,21.01
2016-10-26T19:27:32.282Z,21
2016-10-26T19:28:42.635Z,21.04
2016-10-26T19:29:52.988Z,20.98
2016-10-26T19:31:03.338Z,20.95
2016-10-26T19:32:13.692Z,20.98
2016-10-26T19:33:24.048Z,21.04
2016-10-26T19:34:34.394Z,21.01
2016-10-26T19:35:44.746Z,21.01
2016-10-26T19:36:55.145Z,21.01
2016-10-26T19:38:05.547Z,21.05
2016-10-26T19:39:15.945Z,21.03
2016-10-26T19:40:26.348Z,21
2016-10-26T19:41:36.746Z,20.96
2016-10-26T19:42:47.151Z,21.01
2016-10-26T19:43:57.549Z,21.03
2016-10-26T19:45:07.946Z,20.98
2016-10-26T19:46:18.350Z,21.05
2016-10-26T19:47:28.751Z,21.04
2016-10-26T19:48:39.149Z,21.01
2016-10-26T19:49:49.549Z,21.03
2016-10-26T19:50:59.950Z,21.01
2016-10-26T20:15:48.862Z,20.89
2016-10-26T20:16:59.720Z,20.88
2016-10-26T21:15:36.649Z,21.28
2016-10-26T22:15:51.148Z,21
2016-10-26T22:17:01.623Z,20.95
2016-10-26T22:18:11.924Z,21
2016-10-26T22:19:22.317Z,20.98
2016-10-26T22:20:32.707Z,21.03
2016-10-26T22:21:43.111Z,20.98
2016-10-26T22:22:53.505Z,20.98
2016-10-26T22:24:03.904Z,20.96
2016-10-26T22:25:14.303Z,20.96
2016-10-26T22:26:24.986Z,20.98
2016-10-26T22:26:55.120Z,21
2016-10-26T22:28:05.521Z,21.01
2016-10-26T22:29:15.918Z,20.96
2016-10-26T22:30:26.329Z,21
2016-10-26T22:31:36.733Z,20.98
2016-10-26T23:15:58.909Z,20.89
2016-10-26T23:17:09.306Z,20.9
2016-10-26T23:18:19.698Z,20.88
2016-10-26T23:19:10.071Z,20.88
